Time;durP1;ratioP1;P1;durP2;ratioP2;P2;SDS_P1;SDS_P2;PMS_P1;PMS_P2;Temp;Humidity;BMP_temperature;BMP_pressure;BME280_temperature;BME280_humidity;BME280_pressure;Samples;Min_cycle;Max_cycle;Signal;HPM_P1;HPM_P2
2023/05/30 00:01:41;;;;;;;5.72;2.58;;;10.70;96.70;;;-144.05;41.14;56797.88;5071620;28;20033;-80
2023/05/30 00:04:08;;;;;;;9.15;2.08;;;10.60;97.80;;;-144.05;41.69;56825.47;5071511;28;20029;-80
2023/05/30 00:06:33;;;;;;;8.63;2.75;;;10.60;98.80;;;-144.05;41.88;56821.22;5071344;28;20032;-79
2023/05/30 00:09:01;;;;;;;13.52;2.72;;;10.70;99.90;;;-144.05;41.89;56846.72;5053697;28;20123;-79
2023/05/30 00:11:28;;;;;;;5.20;2.53;;;10.60;99.90;;;-144.05;41.97;56808.47;5071694;28;20039;-78
2023/05/30 00:13:55;;;;;;;14.77;2.92;;;10.60;99.90;;;-144.05;42.07;56844.59;5071914;28;20027;-79
2023/05/30 00:16:23;;;;;;;12.38;3.08;;;10.50;99.90;;;-144.05;42.66;56836.09;5071831;28;20024;-79
2023/05/30 00:18:52;;;;;;;8.15;2.40;;;10.50;99.90;;;-144.05;42.79;56829.72;5071767;28;20056;-78
2023/05/30 00:21:19;;;;;;;9.05;2.40;;;10.50;99.90;;;-144.05;43.14;56825.47;5072125;28;20028;-80
2023/05/30 00:23:45;;;;;;;14.40;2.92;;;10.40;99.90;;;-144.05;43.48;56802.09;5074281;28;20029;-79
2023/05/30 00:26:13;;;;;;;10.82;3.92;;;10.40;99.90;;;-144.05;43.50;56831.84;5075472;28;20244;-79
2023/05/30 00:28:39;;;;;;;9.93;2.80;;;10.30;99.90;;;-144.05;43.96;56827.59;5075499;28;20029;-80
2023/05/30 00:31:06;;;;;;;11.93;2.55;;;10.30;99.90;;;-144.05;44.06;56836.09;5075101;28;20035;-78
2023/05/30 00:33:32;;;;;;;10.38;2.30;;;10.30;99.90;;;-144.05;44.54;56823.34;5057248;28;20031;-80
2023/05/30 00:35:58;;;;;;;12.05;2.53;;;10.20;99.90;;;-144.05;45.52;56865.81;5073795;28;20024;-80
2023/05/30 00:38:25;;;;;;;7.22;2.25;;;10.20;99.90;;;-144.05;44.94;56823.34;5073934;28;20110;-78
2023/05/30 00:40:51;;;;;;;10.02;2.45;;;10.10;99.90;;;-144.05;45.59;56833.97;5075334;28;20028;-79
2023/05/30 00:43:18;;;;;;;14.93;2.35;;;10.10;99.90;;;-144.05;45.90;56797.88;5073890;28;20100;-80
2023/05/30 00:45:49;;;;;;;9.70;1.92;;;10.10;99.90;;;-144.05;45.83;56831.84;5073854;28;20086;-78
2023/05/30 00:48:15;;;;;;;15.77;2.63;;;10.00;99.90;;;-144.05;45.90;56846.72;5074722;28;20032;-79
2023/05/30 00:50:42;;;;;;;10.00;2.22;;;10.00;99.90;;;-144.05;46.41;56814.84;5074921;28;20497;-79
2023/05/30 00:53:09;;;;;;;11.55;2.58;;;9.90;99.90;;;-144.05;46.63;56831.84;5074800;28;20398;-79
2023/05/30 00:55:35;;;;;;;13.23;2.22;;;9.90;99.90;;;-144.05;46.98;56833.97;5074723;28;20461;-80
2023/05/30 00:58:01;;;;;;;18.65;3.28;;;9.80;99.90;;;-144.05;46.94;56825.47;5074526;28;20029;-79
2023/05/30 01:00:29;;;;;;;8.35;2.97;;;9.80;99.90;;;-144.05;47.91;56855.22;5074747;28;20179;-80
2023/05/30 01:03:00;;;;;;;8.35;1.95;;;9.70;99.90;;;-144.05;47.48;56825.47;5073345;28;20024;-78
2023/05/30 01:05:27;;;;;;;10.25;2.20;;;9.60;99.90;;;-144.05;48.12;56812.72;5074669;28;20055;-77
2023/05/30 01:07:53;;;;;;;9.13;2.33;;;9.70;99.90;;;-144.05;47.75;56819.09;5074484;28;20024;-79
2023/05/30 01:10:20;;;;;;;12.93;3.05;;;9.60;99.90;;;-144.05;48.08;56831.84;5056545;28;20031;-79
2023/05/30 01:13:17;;;;;;;15.80;2.75;;;9.60;99.90;;;-144.05;48.29;56806.34;5074615;28;20028;-78
2023/05/30 01:16:07;;;;;;;10.85;2.33;;;9.60;99.90;;;-144.05;48.78;56829.72;5074645;28;20032;-79
2023/05/30 01:19:46;;;;;;;13.70;2.50;;;9.60;99.90;;;-144.05;48.83;56827.59;5074503;28;20099;-79
2023/05/30 01:23:15;;;;;;;14.07;3.05;;;9.50;99.90;;;-144.05;49.51;56842.47;5077229;28;20398;-81
2023/05/30 01:26:39;;;;;;;9.65;1.92;;;9.50;99.90;;;-144.05;49.52;56825.47;5098770;28;20032;-80
2023/05/30 01:29:13;;;;;;;18.48;2.80;;;9.50;99.90;;;-144.05;50.03;56823.34;5038512;28;20106;-78
2023/05/30 01:31:40;;;;;;;7.25;2.10;;;9.40;99.90;;;-144.05;50.82;56810.59;5038735;28;20093;-77
2023/05/30 01:34:07;;;;;;;11.05;2.00;;;9.40;99.90;;;-144.05;50.72;56850.97;5061801;28;20043;-78
2023/05/30 01:36:33;;;;;;;15.18;3.25;;;9.40;99.90;;;-144.05;51.20;56810.59;5099722;28;20021;-78
2023/05/30 01:38:59;;;;;;;15.55;2.75;;;9.30;99.90;;;-144.05;51.79;56825.47;5076602;28;20071;-78
2023/05/30 01:42:04;;;;;;;10.07;2.40;;;9.30;99.90;;;-144.05;52.19;56821.22;5074114;28;20100;-77
2023/05/30 01:45:15;;;;;;;11.55;2.60;;;9.20;99.90;;;-144.05;51.81;56846.72;5073951;28;20031;-79
2023/05/30 01:48:06;;;;;;;10.32;2.45;;;9.20;99.90;;;-144.05;52.26;56797.88;5073754;28;20136;-80
2023/05/30 01:50:47;;;;;;;9.75;2.53;;;9.20;99.90;;;-144.05;52.70;56823.34;5055942;28;20445;-79
2023/05/30 01:53:26;;;;;;;8.52;2.03;;;9.10;99.90;;;-144.05;52.89;56833.97;5073816;28;20025;-78
2023/05/30 01:56:00;;;;;;;10.35;2.10;;;9.20;99.90;;;-144.05;52.81;56797.88;5072580;28;20564;-77
2023/05/30 01:58:31;;;;;;;14.57;2.88;;;9.10;99.90;;;-144.05;53.62;56840.34;5072247;28;20037;-78
2023/05/30 02:00:59;;;;;;;11.57;2.33;;;9.00;99.90;;;-144.05;54.01;56831.84;5073872;28;20050;-79
2023/05/30 02:03:28;;;;;;;12.52;2.53;;;9.00;99.90;;;-144.05;54.08;56836.09;5072354;28;20163;-79
2023/05/30 02:05:54;;;;;;;10.68;2.40;;;8.90;99.90;;;-144.05;54.80;56836.09;5073605;28;20493;-80
2023/05/30 02:08:19;;;;;;;10.25;3.08;;;8.90;99.90;;;-144.05;54.80;56836.09;5073370;28;20036;-79
2023/05/30 02:10:45;;;;;;;10.93;2.72;;;8.90;99.90;;;-144.05;54.88;56827.59;5073546;28;20020;-80
2023/05/30 02:13:11;;;;;;;15.38;3.50;;;8.90;99.90;;;-144.05;55.68;56842.47;5073539;28;20036;-80
2023/05/30 02:15:37;;;;;;;16.88;3.00;;;8.90;99.90;;;-144.05;55.62;56823.34;5073393;28;20199;-80
2023/05/30 02:18:06;;;;;;;15.40;2.95;;;8.90;99.90;;;-144.05;55.78;56806.34;5073390;28;20094;-80
2023/05/30 02:20:33;;;;;;;11.70;3.35;;;8.80;99.90;;;-144.05;56.81;56857.34;5073464;28;20060;-78
2023/05/30 02:22:59;;;;;;;11.73;3.17;;;8.80;99.90;;;-144.05;57.29;56827.59;5073368;28;20028;-80
2023/05/30 02:25:25;;;;;;;16.33;3.33;;;8.80;99.90;;;-144.05;57.43;56829.72;5071859;28;20037;-79
2023/05/30 02:27:50;;;;;;;13.35;2.75;;;8.80;99.90;;;-144.05;58.29;56844.59;5071833;28;20028;-81
2023/05/30 02:30:17;;;;;;;13.90;3.00;;;8.80;99.90;;;-144.05;57.65;56825.47;5055176;28;20024;-78
2023/05/30 02:32:43;;;;;;;16.20;2.97;;;8.80;99.90;;;-144.05;58.17;56842.47;5072865;28;20509;-79
2023/05/30 02:35:10;;;;;;;13.23;3.15;;;8.80;99.90;;;-144.05;58.29;56840.34;5073019;28;20029;-79
2023/05/30 02:37:36;;;;;;;13.45;3.80;;;8.70;99.90;;;-144.05;58.53;56848.84;5072749;28;20028;-79
2023/05/30 02:40:02;;;;;;;16.15;3.33;;;8.70;99.90;;;-144.05;59.07;56814.84;5072716;28;20024;-80
2023/05/30 02:42:29;;;;;;;18.05;3.90;;;8.70;99.90;;;-144.05;59.18;56823.34;5071395;28;20036;-79
2023/05/30 02:44:54;;;;;;;13.95;3.53;;;8.70;99.90;;;-144.05;59.39;56844.59;5071694;28;20550;-81
2023/05/30 02:47:20;;;;;;;15.88;4.03;;;8.70;99.90;;;-144.05;59.53;56831.84;5072489;28;20036;-78
2023/05/30 02:49:46;;;;;;;15.65;3.80;;;8.70;99.90;;;-144.05;60.43;56821.22;5072492;28;20029;-79
2023/05/30 02:52:12;;;;;;;15.85;3.97;;;8.70;99.90;;;-144.05;60.01;56802.09;5072516;28;20132;-80
2023/05/30 02:54:39;;;;;;;24.63;4.13;;;8.80;99.90;;;-144.05;60.51;56825.47;5071340;28;20035;-80
2023/05/30 02:57:06;;;;;;;20.77;4.38;;;8.90;99.90;;;-144.05;60.14;56829.72;5070989;28;20025;-78
2023/05/30 02:59:32;;;;;;;22.45;5.63;;;9.00;99.90;;;-144.05;60.76;56821.22;5072336;28;20032;-80
2023/05/30 03:01:58;;;;;;;20.83;5.85;;;9.10;99.90;;;-144.05;60.29;56838.22;5072360;28;20063;-80
2023/05/30 03:04:23;;;;;;;18.58;7.38;;;9.10;99.90;;;-144.05;59.97;56838.22;5054579;28;20056;-78
2023/05/30 03:06:51;;;;;;;25.25;7.53;;;9.30;99.90;;;-144.05;59.74;56819.09;5072376;28;20510;-79
2023/05/30 03:09:16;;;;;;;16.20;6.80;;;9.30;99.90;;;-144.05;60.30;56831.84;5072238;28;20532;-80
2023/05/30 03:11:42;;;;;;;21.73;7.05;;;9.40;99.90;;;-144.05;60.72;56825.47;5070968;28;20108;-78
2023/05/30 03:14:08;;;;;;;19.52;7.20;;;9.40;99.90;;;-144.05;59.95;56789.38;5072188;28;20484;-79
2023/05/30 03:16:34;;;;;;;22.38;7.07;;;9.40;99.90;;;-144.05;60.78;56827.59;5072202;28;20490;-80
2023/05/30 03:19:01;;;;;;;27.55;7.53;;;9.50;99.90;;;-144.05;60.38;56838.22;5072084;28;20056;-80
2023/05/30 03:21:27;;;;;;;26.90;8.60;;;9.50;99.90;;;-144.05;60.67;56827.59;5072102;28;20249;-80
2023/05/30 03:23:53;;;;;;;21.50;7.78;;;9.50;99.90;;;-144.05;60.08;56821.22;5072023;28;20085;-80
2023/05/30 03:26:19;;;;;;;17.45;8.00;;;9.50;99.90;;;-144.05;60.09;56819.09;5071777;28;20051;-78
2023/05/30 03:28:45;;;;;;;20.35;8.02;;;9.50;99.90;;;-144.05;60.10;56816.97;5071859;28;20028;-80
2023/05/30 03:31:11;;;;;;;25.17;7.40;;;9.50;99.90;;;-144.05;60.16;56844.59;5070441;28;20048;-78
2023/05/30 03:33:37;;;;;;;22.20;8.15;;;9.50;99.90;;;-144.05;60.30;56831.84;5071773;28;20021;-80
2023/05/30 03:36:03;;;;;;;20.30;8.45;;;9.60;99.90;;;-144.05;60.21;56808.47;5070616;28;20028;-78
2023/05/30 03:38:29;;;;;;;21.48;7.55;;;9.60;99.90;;;-144.05;59.89;56836.09;5070445;28;20024;-78
2023/05/30 03:40:55;;;;;;;20.60;7.88;;;9.60;99.90;;;-144.05;60.50;56821.22;5071845;28;20031;-80
2023/05/30 03:43:21;;;;;;;26.13;8.32;;;9.60;99.90;;;-144.05;60.53;56814.84;5071704;28;20244;-81
2023/05/30 03:45:48;;;;;;;19.50;8.50;;;9.60;99.90;;;-144.05;60.27;56814.84;5054204;28;20072;-78
2023/05/30 03:48:13;;;;;;;20.42;8.20;;;9.60;99.90;;;-144.05;60.10;56827.59;5070225;28;20074;-78
2023/05/30 03:50:39;;;;;;;21.38;8.55;;;9.60;99.90;;;-144.05;60.50;56838.22;5071484;28;20032;-80
2023/05/30 03:53:05;;;;;;;20.65;6.90;;;9.60;99.90;;;-144.05;60.53;56825.47;5070408;28;20029;-80
2023/05/30 03:55:31;;;;;;;21.83;7.03;;;9.60;99.90;;;-144.05;61.07;56833.97;5071352;28;20029;-79
2023/05/30 03:57:57;;;;;;;21.02;6.32;;;9.60;99.90;;;-144.05;60.32;56816.97;5053509;28;20032;-80
2023/05/30 04:00:23;;;;;;;18.45;7.72;;;9.60;99.90;;;-144.05;61.14;56825.47;5071524;28;20028;-78
2023/05/30 04:02:49;;;;;;;24.67;9.05;;;9.60;99.90;;;-144.05;60.25;56831.84;5071772;28;20040;-80
2023/05/30 04:05:14;;;;;;;19.13;8.82;;;9.70;99.90;;;-144.05;60.20;56821.22;5070615;28;20056;-76
2023/05/30 04:07:41;;;;;;;19.40;7.68;;;9.70;99.90;;;-144.05;59.85;56819.09;5070011;28;20032;-78
2023/05/30 04:10:07;;;;;;;21.48;8.38;;;9.80;99.90;;;-144.05;59.84;56825.47;5071366;28;20028;-79
2023/05/30 04:12:33;;;;;;;19.10;7.95;;;9.90;99.90;;;-144.05;59.67;56802.09;5070120;28;20442;-80
2023/05/30 04:14:59;;;;;;;17.73;7.93;;;9.90;99.90;;;-144.05;59.38;56814.84;5071589;28;20107;-78
2023/05/30 04:17:24;;;;;;;18.88;7.38;;;10.00;99.90;;;-144.05;59.45;56810.59;5071439;28;20029;-80
2023/05/30 04:19:52;;;;;;;20.15;7.28;;;10.00;99.90;;;-144.05;59.11;56840.34;5071533;28;20072;-79
2023/05/30 04:22:18;;;;;;;15.60;7.50;;;10.00;99.90;;;-144.05;59.00;56814.84;5069933;28;20512;-78
2023/05/30 04:24:45;;;;;;;21.98;7.47;;;10.10;99.90;;;-144.05;58.75;56831.84;5071271;28;20104;-79
2023/05/30 04:27:13;;;;;;;24.45;8.68;;;10.10;99.90;;;-144.05;58.67;56814.84;5069878;28;20032;-79
2023/05/30 04:29:42;;;;;;;27.05;10.48;;;10.20;99.90;;;-144.05;58.91;56848.84;5053093;28;20029;-80
2023/05/30 04:32:09;;;;;;;30.50;10.65;;;10.20;99.90;;;-144.05;58.79;56819.09;5053124;28;20025;-77
2023/05/30 04:34:35;;;;;;;33.30;9.82;;;10.10;99.90;;;-144.05;58.54;56814.84;5071326;28;20025;-78
2023/05/30 04:37:04;;;;;;;19.83;8.70;;;10.10;99.90;;;-144.05;58.10;56827.59;5069817;28;20024;-80
2023/05/30 04:39:30;;;;;;;24.65;8.50;;;10.30;99.90;;;-144.05;58.49;56823.34;5071054;28;20444;-79
2023/05/30 04:41:56;;;;;;;24.60;9.68;;;10.30;99.90;;;-144.05;58.19;56816.97;5053055;28;20411;-78
2023/05/30 04:44:22;;;;;;;21.80;8.18;;;10.30;99.90;;;-144.05;57.90;56816.97;5069904;28;20128;-78
2023/05/30 04:46:48;;;;;;;27.67;7.68;;;10.40;99.90;;;-144.05;57.29;56823.34;5070958;28;20032;-80
2023/05/30 04:49:16;;;;;;;19.55;7.30;;;10.40;99.90;;;-144.05;56.89;56816.97;5070958;28;20060;-79
2023/05/30 04:51:43;;;;;;;18.98;7.38;;;10.40;99.90;;;-144.05;57.22;56833.97;5070545;28;20032;-79
2023/05/30 04:54:09;;;;;;;20.02;7.53;;;10.40;99.90;;;-144.05;57.01;56802.09;5071222;28;20029;-78
2023/05/30 04:56:35;;;;;;;22.20;7.88;;;10.50;99.90;;;-144.05;56.94;56833.97;5052973;28;20573;-78
2023/05/30 04:59:01;;;;;;;21.50;7.07;;;10.50;99.90;;;-144.05;57.12;56823.34;5071032;28;20529;-80
2023/05/30 05:01:27;;;;;;;22.45;7.78;;;10.40;99.90;;;-144.05;57.07;56814.84;5071088;28;20044;-80
2023/05/30 05:03:53;;;;;;;18.70;7.90;;;10.50;99.90;;;-144.05;56.84;56812.72;5070167;28;20122;-78
2023/05/30 05:06:19;;;;;;;23.02;7.57;;;10.50;99.90;;;-144.05;57.03;56814.84;5069581;28;20047;-78
2023/05/30 05:08:45;;;;;;;17.10;6.35;;;10.50;99.90;;;-144.05;57.07;56829.72;5073659;28;20032;-79
2023/05/30 05:11:11;;;;;;;18.52;6.50;;;10.50;99.90;;;-144.05;56.54;56838.22;5073544;28;20102;-80
2023/05/30 05:13:37;;;;;;;19.05;8.20;;;10.50;99.90;;;-144.05;56.47;56833.97;5074828;28;20028;-80
2023/05/30 05:16:04;;;;;;;22.42;7.40;;;10.60;99.90;;;-144.05;56.03;56804.22;5074534;28;20067;-80
2023/05/30 05:18:30;;;;;;;24.85;7.55;;;10.70;99.90;;;-144.05;55.99;56825.47;5073369;28;20024;-79
2023/05/30 05:20:56;;;;;;;17.13;6.55;;;10.70;99.90;;;-144.05;55.36;56827.59;5074727;28;20379;-78
2023/05/30 05:23:23;;;;;;;27.27;8.25;;;10.80;99.90;;;-144.05;55.16;56816.97;5080733;28;20083;-81
2023/05/30 05:25:49;;;;;;;21.20;7.10;;;10.80;99.90;;;-144.05;55.26;56804.22;5077878;28;20051;-80
2023/05/30 05:28:15;;;;;;;20.02;6.38;;;10.80;99.90;;;-144.05;55.53;56833.97;5075287;28;20024;-80
2023/05/30 05:30:41;;;;;;;14.95;6.07;;;10.80;99.90;;;-144.05;55.67;56819.09;5074723;28;20029;-79
2023/05/30 05:33:08;;;;;;;19.15;6.85;;;10.80;99.90;;;-144.05;55.16;56819.09;5074602;28;20070;-80
2023/05/30 05:35:35;;;;;;;17.13;6.20;;;10.80;99.90;;;-144.05;54.83;56814.84;5074269;28;20039;-78
2023/05/30 05:38:00;;;;;;;15.93;6.78;;;10.90;99.90;;;-144.05;55.04;56795.75;5074254;28;20032;-78
2023/05/30 05:40:27;;;;;;;17.33;6.45;;;10.90;99.90;;;-144.05;54.85;56825.47;5074236;28;20530;-79
2023/05/30 05:42:53;;;;;;;18.13;6.10;;;11.00;99.90;;;-144.05;54.41;56819.09;5073997;28;20040;-78
2023/05/30 05:45:19;;;;;;;16.63;6.60;;;11.00;99.90;;;-144.05;54.59;56812.72;5074168;28;20378;-80
2023/05/30 05:47:45;;;;;;;15.38;6.13;;;11.10;99.90;;;-144.05;54.21;56810.59;5074058;28;20028;-80
2023/05/30 05:50:11;;;;;;;17.65;6.35;;;11.10;99.90;;;-144.05;53.61;56810.59;5073823;28;20035;-81
2023/05/30 05:52:36;;;;;;;20.75;5.85;;;11.20;99.90;;;-144.05;53.79;56812.72;5073963;28;20060;-80
2023/05/30 05:55:02;;;;;;;19.83;6.13;;;11.30;99.90;;;-144.05;52.56;56823.34;5072670;28;20036;-80
2023/05/30 05:57:28;;;;;;;13.60;5.75;;;11.50;99.90;;;-144.05;52.33;56799.97;5055654;28;20115;-79
2023/05/30 05:59:54;;;;;;;18.17;5.90;;;11.60;99.90;;;-144.05;52.31;56812.72;5073799;28;20024;-79
2023/05/30 06:02:20;;;;;;;14.02;6.15;;;11.70;99.90;;;-144.05;52.19;56806.34;5074328;28;20036;-79
2023/05/30 06:04:47;;;;;;;20.23;6.15;;;11.80;99.90;;;-144.05;52.67;56814.84;5073926;28;20041;-79
2023/05/30 06:07:13;;;;;;;17.85;6.70;;;11.70;99.90;;;-144.05;52.68;56797.88;5073844;28;20024;-79
2023/05/30 06:09:39;;;;;;;19.05;6.93;;;11.70;99.90;;;-144.05;52.46;56804.22;5055801;28;20051;-80
2023/05/30 06:12:05;;;;;;;17.13;6.63;;;11.80;99.90;;;-144.05;52.17;56836.09;5055604;28;20401;-80
2023/05/30 06:14:31;;;;;;;17.38;6.47;;;11.80;99.90;;;-144.05;51.38;56810.59;5055701;28;20416;-78
2023/05/30 06:16:58;;;;;;;17.23;6.82;;;11.80;99.90;;;-144.05;52.14;56810.59;5073853;28;20028;-78
2023/05/30 06:19:24;;;;;;;23.17;5.72;;;11.80;99.90;;;-144.05;51.40;56812.72;5072434;28;20401;-79
2023/05/30 06:21:50;;;;;;;11.55;6.40;;;12.00;99.90;;;-144.05;50.22;56814.84;5073441;28;20032;-80
2023/05/30 06:24:15;;;;;;;15.15;6.35;;;12.30;99.90;;;-144.05;49.93;56806.34;5073475;28;20378;-78
2023/05/30 06:26:41;;;;;;;17.67;6.38;;;12.40;99.90;;;-144.05;50.23;56785.13;5073500;28;20066;-79
2023/05/30 06:29:07;;;;;;;18.77;7.15;;;12.30;99.90;;;-144.05;50.74;56823.34;5073736;28;20104;-78
2023/05/30 06:31:33;;;;;;;23.83;7.68;;;12.30;99.90;;;-144.05;50.76;56825.47;5079599;28;20040;-79
2023/05/30 06:33:59;;;;;;;15.13;6.32;;;12.30;99.90;;;-144.05;50.12;56814.84;5076025;28;20035;-77
2023/05/30 06:36:24;;;;;;;22.75;7.47;;;12.50;99.90;;;-144.05;49.25;56804.22;5073549;28;20112;-79
2023/05/30 06:38:51;;;;;;;22.10;7.68;;;12.70;99.90;;;-144.05;48.71;56810.59;5073129;28;20032;-79
2023/05/30 06:41:17;;;;;;;16.42;6.43;;;12.80;99.90;;;-144.05;48.15;56797.88;5072251;28;20032;-78
2023/05/30 06:43:43;;;;;;;21.23;6.63;;;12.80;99.90;;;-144.05;48.17;56812.72;5073433;28;20029;-79
2023/05/30 06:46:08;;;;;;;22.50;6.70;;;12.70;99.90;;;-144.05;48.30;56810.59;5073109;28;20107;-78
2023/05/30 06:48:34;;;;;;;16.83;6.82;;;12.70;99.90;;;-144.05;49.13;56799.97;5072863;28;20394;-79
2023/05/30 06:51:00;;;;;;;18.23;6.28;;;12.70;99.90;;;-144.05;49.01;56816.97;5073253;28;20051;-77
2023/05/30 06:53:26;;;;;;;21.08;6.60;;;12.70;99.90;;;-144.05;48.78;56831.84;5071449;28;20048;-79
2023/05/30 06:55:52;;;;;;;16.67;5.93;;;13.00;99.90;;;-144.05;47.36;56814.84;5073123;28;20406;-79
2023/05/30 06:58:18;;;;;;;19.15;7.03;;;13.30;99.90;;;-144.05;47.05;56802.09;5054746;28;20036;-77
2023/05/30 07:00:44;;;;;;;16.95;6.05;;;13.40;99.90;;;-144.05;46.32;56795.75;5073277;28;20028;-80
2023/05/30 07:03:10;;;;;;;16.10;6.43;;;13.60;99.90;;;-144.05;46.60;56819.09;5072707;28;20048;-78
2023/05/30 07:05:36;;;;;;;15.88;5.95;;;13.50;99.90;;;-144.05;46.54;56799.97;5072644;28;20032;-78
2023/05/30 07:08:02;;;;;;;17.40;6.30;;;13.70;99.90;;;-144.05;45.95;56827.59;5072341;28;20111;-79
2023/05/30 07:10:28;;;;;;;12.93;6.20;;;13.90;99.90;;;-144.05;45.09;56810.59;5071149;28;20119;-77
2023/05/30 07:12:54;;;;;;;14.50;6.03;;;14.00;99.90;;;-144.05;44.46;56819.09;5072236;28;20021;-78
2023/05/30 07:15:20;;;;;;;16.20;6.80;;;14.10;99.90;;;-144.05;44.52;56816.97;5054350;28;20039;-78
2023/05/30 07:17:46;;;;;;;14.30;5.63;;;14.50;99.90;;;-144.05;43.25;56795.75;5072189;28;20024;-79
2023/05/30 07:20:12;;;;;;;14.18;5.45;;;14.90;99.90;;;-144.05;42.32;56814.84;5054392;28;20063;-80
2023/05/30 07:22:38;;;;;;;10.88;4.60;;;15.20;99.90;;;-144.05;42.06;56812.72;5072357;28;20523;-78
2023/05/30 07:25:06;;;;;;;16.50;5.68;;;15.30;99.90;;;-144.05;41.43;56825.47;5072119;28;20024;-80
2023/05/30 07:27:32;;;;;;;16.58;5.75;;;15.10;99.90;;;-144.05;42.40;56836.09;5072161;28;20107;-78
2023/05/30 07:29:58;;;;;;;15.35;5.55;;;14.90;99.90;;;-144.05;42.51;56833.97;5054153;28;20032;-77
2023/05/30 07:32:23;;;;;;;15.10;6.05;;;14.70;99.90;;;-144.05;42.63;56812.72;5072068;28;20068;-77
2023/05/30 07:34:49;;;;;;;14.68;7.00;;;14.50;99.90;;;-144.05;43.29;56823.34;5072388;28;20078;-78
2023/05/30 07:37:15;;;;;;;15.43;5.35;;;14.20;99.90;;;-144.05;43.42;56819.09;5070740;28;20043;-78
2023/05/30 07:39:41;;;;;;;12.38;6.05;;;14.20;99.90;;;-144.05;44.03;56808.47;5070579;28;20163;-77
2023/05/30 07:42:07;;;;;;;14.63;6.40;;;14.20;99.90;;;-144.05;43.80;56799.97;5071970;28;20028;-80
2023/05/30 07:44:33;;;;;;;13.80;5.57;;;14.50;99.90;;;-144.05;42.19;56810.59;5071735;28;20028;-79
2023/05/30 07:46:59;;;;;;;11.25;4.50;;;15.10;99.90;;;-144.05;41.21;56819.09;5071628;28;20074;-78
2023/05/30 07:49:25;;;;;;;17.25;6.18;;;15.70;99.90;;;-144.05;39.35;56810.59;5072061;28;20067;-78
2023/05/30 07:51:51;;;;;;;15.00;5.72;;;16.00;99.90;;;-144.05;40.51;56827.59;5071807;28;20025;-79
2023/05/30 07:54:16;;;;;;;13.77;5.53;;;16.10;99.90;;;-144.05;39.05;56814.84;5070564;28;20448;-79
2023/05/30 07:56:42;;;;;;;11.60;6.00;;;16.40;99.90;;;-144.05;38.60;56829.72;5072022;28;20060;-81
2023/05/30 07:59:08;;;;;;;12.23;5.80;;;16.50;99.90;;;-144.05;38.22;56808.47;5071460;28;20509;-79
2023/05/30 08:01:34;;;;;;;13.73;4.80;;;16.70;99.90;;;-144.05;37.44;56808.47;5076511;28;20058;-80
2023/05/30 08:04:00;;;;;;;11.50;4.90;;;16.80;99.90;;;-144.05;37.39;56827.59;5078018;28;20037;-80
2023/05/30 08:06:26;;;;;;;14.45;4.78;;;17.10;99.90;;;-144.05;36.25;56819.09;5054797;28;20025;-80
2023/05/30 08:08:52;;;;;;;10.77;4.45;;;17.20;99.90;;;-144.05;37.30;56814.84;5072937;28;20039;-79
2023/05/30 08:11:19;;;;;;;10.00;4.80;;;17.20;99.90;;;-144.05;36.78;56831.84;5072747;28;20478;-78
2023/05/30 08:13:45;;;;;;;10.38;5.15;;;17.10;99.90;;;-144.05;36.62;56840.34;5056368;28;20119;-79
2023/05/30 08:16:11;;;;;;;14.63;4.65;;;17.30;99.90;;;-144.05;37.16;56825.47;5053349;28;20478;-79
2023/05/30 08:18:37;;;;;;;12.73;5.45;;;17.50;99.90;;;-144.05;37.39;56827.59;5071355;28;20029;-79
2023/05/30 08:21:04;;;;;;;12.40;4.35;;;17.30;99.90;;;-144.05;36.97;56842.47;5070577;28;20122;-80
2023/05/30 08:23:30;;;;;;;16.70;3.83;;;17.60;99.90;;;-144.05;36.80;56827.59;5053971;28;20518;-78
2023/05/30 08:25:56;;;;;;;15.00;5.63;;;17.70;99.90;;;-144.05;35.99;56831.84;5071572;28;20111;-79
2023/05/30 08:28:23;;;;;;;10.55;4.50;;;17.70;99.90;;;-144.05;36.28;56827.59;5070315;28;20033;-78
2023/05/30 08:30:49;;;;;;;12.98;5.18;;;17.60;99.90;;;-144.05;36.25;56838.22;5071317;28;20033;-79
2023/05/30 08:33:19;;;;;;;11.20;4.47;;;17.90;99.90;;;-144.05;36.07;56840.34;5071520;28;20494;-79
2023/05/30 08:35:46;;;;;;;12.02;3.67;;;17.90;99.90;;;-144.05;35.64;56797.88;5071487;28;20036;-82
2023/05/30 08:38:13;;;;;;;9.40;4.45;;;18.10;99.90;;;-144.05;35.24;56853.09;5071627;28;20051;-79
2023/05/30 08:40:45;;;;;;;11.70;4.85;;;18.30;99.90;;;-144.05;34.29;56857.34;5071642;28;20036;-80
2023/05/30 08:43:11;;;;;;;13.77;4.72;;;18.50;99.90;;;-144.05;34.71;56842.47;5073246;28;20033;-78
2023/05/30 08:45:39;;;;;;;11.20;4.25;;;18.50;99.80;;;-144.05;34.56;56838.22;5057192;28;20036;-79
2023/05/30 08:48:06;;;;;;;13.77;5.10;;;18.70;99.90;;;-144.05;34.51;56836.09;5073725;28;20449;-80
2023/05/30 08:50:36;;;;;;;11.75;4.30;;;18.80;99.70;;;-144.05;35.06;56836.09;5075474;28;20063;-78
2023/05/30 08:53:13;;;;;;;13.88;4.35;;;18.50;99.00;;;-144.05;34.65;56838.22;5075437;28;20031;-80
2023/05/30 08:56:01;;;;;;;9.07;4.07;;;18.70;99.90;;;-144.05;34.71;56861.56;5075168;28;20020;-80
2023/05/30 08:58:42;;;;;;;10.80;4.55;;;19.00;99.00;;;-144.05;34.69;56840.34;5057219;28;20092;-79
2023/05/30 09:01:12;;;;;;;12.48;5.03;;;19.00;99.10;;;-144.05;33.94;56838.22;5075441;28;20044;-79
2023/05/30 09:03:44;;;;;;;12.02;4.47;;;19.00;98.40;;;-144.05;34.43;56846.72;5073839;28;20032;-80
2023/05/30 09:06:16;;;;;;;14.70;4.25;;;18.90;99.10;;;-144.05;34.20;56842.47;5075118;28;20040;-82
2023/05/30 09:08:45;;;;;;;11.25;4.65;;;19.10;98.40;;;-144.05;34.00;56863.69;5077128;28;20025;-81
2023/05/30 09:11:13;;;;;;;12.07;4.53;;;19.20;98.50;;;-144.05;33.06;56848.84;5084120;28;20051;-79
2023/05/30 09:13:41;;;;;;;11.93;4.25;;;19.60;96.30;;;-144.05;33.01;56880.69;5058259;28;20025;-79
2023/05/30 09:16:08;;;;;;;12.48;4.57;;;19.70;95.70;;;-144.05;33.03;56857.34;5057824;28;20067;-79
2023/05/30 09:18:34;;;;;;;13.70;4.78;;;19.60;95.50;;;-144.05;33.26;56842.47;5075358;28;20025;-78
2023/05/30 09:21:05;;;;;;;10.32;4.40;;;19.70;96.00;;;-144.05;33.23;56865.81;5073907;28;20058;-79
2023/05/30 09:23:31;;;;;;;16.73;5.07;;;19.50;95.80;;;-144.05;32.84;56872.19;5074954;28;20041;-80
2023/05/30 09:25:59;;;;;;;7.75;3.67;;;19.80;94.00;;;-144.05;33.25;56853.09;5074772;28;20034;-80
2023/05/30 09:28:28;;;;;;;10.45;4.10;;;19.70;94.60;;;-144.05;32.78;56853.09;5074747;28;20055;-78
2023/05/30 09:30:56;;;;;;;10.02;4.35;;;20.00;94.10;;;-144.05;31.98;56876.44;5056916;28;20245;-78
2023/05/30 09:33:24;;;;;;;12.13;4.90;;;20.10;92.90;;;-144.05;32.14;56865.81;5074920;28;20555;-80
2023/05/30 09:35:54;;;;;;;10.90;5.15;;;19.60;91.60;;;-144.05;33.19;56872.19;5075030;28;20028;-80
2023/05/30 09:38:24;;;;;;;12.75;5.25;;;19.10;92.80;;;-144.05;32.79;56857.34;5074512;28;20020;-80
2023/05/30 09:41:02;;;;;;;10.73;3.88;;;19.30;92.90;;;-144.05;32.34;56848.84;5073228;28;20040;-79
2023/05/30 09:43:36;;;;;;;13.63;5.15;;;19.70;92.20;;;-144.05;31.62;56884.94;5075023;28;20071;-78
2023/05/30 09:46:05;;;;;;;9.35;4.40;;;19.80;90.90;;;-144.05;32.49;56874.31;5073246;28;20401;-79
2023/05/30 09:48:32;;;;;;;12.80;4.43;;;19.60;91.30;;;-144.05;33.16;56865.81;5074579;28;20062;-79
2023/05/30 09:51:01;;;;;;;13.57;4.97;;;19.60;92.40;;;-144.05;32.50;56874.31;5073568;28;20145;-80
2023/05/30 09:53:33;;;;;;;10.82;5.00;;;19.80;91.90;;;-144.05;32.22;56867.94;5074957;28;20024;-79
2023/05/30 09:56:02;;;;;;;12.18;5.07;;;19.90;91.80;;;-144.05;32.17;56878.56;5079782;28;20032;-79
2023/05/30 09:58:29;;;;;;;9.45;4.97;;;19.90;91.40;;;-144.05;32.26;56867.94;5080679;28;20833;-81
2023/05/30 10:00:59;;;;;;;13.07;5.38;;;19.90;90.80;;;-144.05;32.55;56836.09;5083083;28;20465;-81
2023/05/30 10:03:44;;;;;;;11.10;5.10;;;20.20;91.10;;;-144.05;32.14;56859.47;5066988;28;20497;-81
2023/05/30 10:06:16;;;;;;;10.70;4.82;;;20.30;91.10;;;-144.05;32.36;56872.19;5083777;28;20033;-80
2023/05/30 10:08:46;;;;;;;13.60;5.28;;;20.50;91.30;;;-144.05;32.06;56893.44;5082529;28;20043;-81